createdAt,value
2023-03-15T00:01:52.519Z,1.40
2023-03-15T00:04:19.520Z,1.75
2023-03-15T00:06:46.329Z,1.45
2023-03-15T00:09:13.373Z,1.40
2023-03-15T00:11:39.864Z,2.40
2023-03-15T00:14:07.559Z,1.50
2023-03-15T00:16:34.236Z,1.65
2023-03-15T00:19:00.962Z,1.55
2023-03-15T00:21:29.894Z,1.45
2023-03-15T00:24:00.265Z,2.00
2023-03-15T00:26:26.972Z,2.03
2023-03-15T00:28:53.609Z,2.10
2023-03-15T00:31:22.654Z,2.03
2023-03-15T00:33:49.594Z,1.30
2023-03-15T00:36:16.921Z,2.50
2023-03-15T00:38:46.459Z,1.45
2023-03-15T00:41:16.162Z,1.40
2023-03-15T00:43:43.757Z,1.58
2023-03-15T00:46:11.417Z,2.10
2023-03-15T00:48:38.086Z,1.60
2023-03-15T00:51:10.955Z,1.73
2023-03-15T00:53:39.234Z,1.85
2023-03-15T00:56:16.202Z,2.00
2023-03-15T00:58:43.253Z,2.33
2023-03-15T01:01:19.408Z,1.80
2023-03-15T01:03:46.150Z,1.70
2023-03-15T01:06:18.788Z,1.90
2023-03-15T01:08:45.695Z,1.60
2023-03-15T01:11:15.582Z,1.33
2023-03-15T01:13:42.605Z,1.88
2023-03-15T01:16:11.747Z,1.95
2023-03-15T01:18:39.267Z,1.85
2023-03-15T01:21:11.087Z,1.30
2023-03-15T01:23:37.849Z,1.55
2023-03-15T01:26:07.146Z,1.50
2023-03-15T01:28:33.766Z,1.90
2023-03-15T01:31:00.597Z,1.73
2023-03-15T01:33:28.230Z,1.67
2023-03-15T01:36:03.421Z,1.58
2023-03-15T01:38:30.569Z,1.80
2023-03-15T01:40:57.615Z,1.45
2023-03-15T01:43:26.531Z,1.90
2023-03-15T01:46:02.780Z,2.00
2023-03-15T01:48:47.541Z,2.80
2023-03-15T01:51:37.143Z,3.17
2023-03-15T01:54:13.429Z,1.73
2023-03-15T01:56:45.478Z,1.80
2023-03-15T01:59:17.378Z,2.10
2023-03-15T02:01:45.798Z,2.08
2023-03-15T02:04:18.623Z,1.80
2023-03-15T02:06:46.950Z,2.00
2023-03-15T02:09:16.427Z,1.77
2023-03-15T02:11:43.701Z,1.38
2023-03-15T02:14:15.558Z,1.50
2023-03-15T02:16:42.468Z,1.65
2023-03-15T02:19:25.378Z,1.60
2023-03-15T02:22:20.976Z,2.25
2023-03-15T02:25:01.604Z,1.98
2023-03-15T02:27:35.121Z,1.63
2023-03-15T02:32:30.998Z,2.42
2023-03-15T02:34:58.246Z,1.50
2023-03-15T02:37:24.780Z,1.80
2023-03-15T02:39:51.345Z,1.40
2023-03-15T02:42:19.347Z,1.65
2023-03-15T02:44:51.440Z,2.92
2023-03-15T02:47:29.459Z,2.88
2023-03-15T02:49:55.906Z,1.98
2023-03-15T02:52:23.342Z,2.20
2023-03-15T02:54:50.281Z,2.03
2023-03-15T02:57:18.774Z,2.08
2023-03-15T02:59:45.359Z,2.28
2023-03-15T03:02:13.009Z,2.20
2023-03-15T03:04:39.798Z,2.00
2023-03-15T03:07:06.318Z,1.80
2023-03-15T03:09:33.015Z,1.75
2023-03-15T03:11:59.939Z,1.70
2023-03-15T03:14:32.964Z,1.75
2023-03-15T03:16:59.407Z,2.17
2023-03-15T03:19:26.225Z,2.08
2023-03-15T03:21:54.112Z,1.58
2023-03-15T03:24:21.540Z,4.30
2023-03-15T03:26:48.306Z,1.88
2023-03-15T03:29:16.676Z,2.55
2023-03-15T03:31:44.445Z,2.38
2023-03-15T03:34:14.601Z,1.83
2023-03-15T03:36:43.228Z,2.25
2023-03-15T03:39:10.789Z,2.25
2023-03-15T03:41:37.914Z,1.90
2023-03-15T03:44:04.614Z,2.35
2023-03-15T03:46:31.681Z,1.77
2023-03-15T03:48:58.301Z,1.92
2023-03-15T03:51:24.802Z,1.90
2023-03-15T03:53:51.358Z,3.08
2023-03-15T03:56:17.935Z,1.70
2023-03-15T03:58:44.525Z,1.65
2023-03-15T04:01:11.730Z,2.33
2023-03-15T04:03:38.416Z,1.90
2023-03-15T04:06:05.709Z,2.60
2023-03-15T04:08:35.641Z,2.10
2023-03-15T04:11:04.087Z,2.38
2023-03-15T04:13:34.494Z,1.98
2023-03-15T04:16:02.710Z,1.95
2023-03-15T04:18:29.273Z,1.92
2023-03-15T04:20:55.822Z,4.70
2023-03-15T04:23:23.500Z,1.60
2023-03-15T04:25:52.341Z,2.50
2023-03-15T04:28:19.651Z,1.88
2023-03-15T04:30:48.857Z,2.47
2023-03-15T04:33:16.237Z,3.15
2023-03-15T04:35:42.877Z,2.13
2023-03-15T04:38:09.401Z,1.80
2023-03-15T04:40:36.459Z,2.05
2023-03-15T04:43:05.466Z,2.35
2023-03-15T04:45:32.762Z,2.38
2023-03-15T04:48:01.696Z,2.42
2023-03-15T04:50:29.748Z,2.85
2023-03-15T04:52:58.101Z,2.17
2023-03-15T04:55:24.685Z,1.80
2023-03-15T04:57:51.408Z,2.22
2023-03-15T05:00:18.588Z,1.85
2023-03-15T05:02:54.902Z,2.17
2023-03-15T05:05:24.962Z,2.10
2023-03-15T05:07:51.806Z,2.70
2023-03-15T05:10:18.723Z,1.98
2023-03-15T05:12:45.379Z,2.08
2023-03-15T05:15:13.087Z,2.47
2023-03-15T05:17:39.663Z,2.05
2023-03-15T05:20:11.749Z,1.85
2023-03-15T05:22:39.835Z,4.20
2023-03-15T05:25:08.012Z,1.73
2023-03-15T05:27:34.709Z,2.13
2023-03-15T05:30:03.605Z,2.00
2023-03-15T05:32:34.941Z,2.15
2023-03-15T05:35:02.427Z,1.92
2023-03-15T05:37:29.132Z,2.13
2023-03-15T05:39:56.052Z,2.10
2023-03-15T05:42:26.374Z,1.95
2023-03-15T05:44:57.411Z,2.20
2023-03-15T05:47:24.409Z,1.88
2023-03-15T05:49:52.465Z,2.72
2023-03-15T05:52:19.319Z,2.67
2023-03-15T05:54:45.763Z,2.92
2023-03-15T05:57:12.173Z,2.17
2023-03-15T05:59:38.962Z,2.83
2023-03-15T06:02:05.481Z,2.38
2023-03-15T06:04:31.936Z,3.53
2023-03-15T06:06:58.569Z,3.10
2023-03-15T06:09:25.222Z,2.70
2023-03-15T06:11:52.725Z,2.50
2023-03-15T06:14:19.331Z,2.50
2023-03-15T06:16:45.944Z,2.63
2023-03-15T06:19:12.963Z,2.45
2023-03-15T06:21:39.647Z,3.10
2023-03-15T06:24:06.647Z,3.83
2023-03-15T06:26:33.413Z,2.00
2023-03-15T06:29:00.123Z,2.10
2023-03-15T06:31:26.641Z,3.33
2023-03-15T06:33:53.190Z,2.40
2023-03-15T06:36:19.682Z,2.00
2023-03-15T06:38:46.218Z,2.25
2023-03-15T06:41:15.393Z,2.20
2023-03-15T06:43:42.249Z,2.25
2023-03-15T06:46:08.790Z,2.38
2023-03-15T06:48:35.612Z,2.42
2023-03-15T06:51:04.041Z,2.10
2023-03-15T06:53:30.954Z,2.00
2023-03-15T06:55:57.848Z,2.42
2023-03-15T06:58:24.359Z,2.72
2023-03-15T07:00:51.357Z,1.98
2023-03-15T07:03:19.183Z,2.83
2023-03-15T07:05:46.647Z,2.05
2023-03-15T07:08:13.084Z,1.88
2023-03-15T07:10:39.709Z,1.95
2023-03-15T07:13:06.910Z,1.95
2023-03-15T07:15:33.593Z,3.03
2023-03-15T07:18:09.844Z,1.90
2023-03-15T07:20:37.859Z,1.63
2023-03-15T07:23:05.293Z,3.03
2023-03-15T07:25:33.262Z,1.60
2023-03-15T07:27:59.831Z,2.05
2023-03-15T07:30:26.644Z,1.63
2023-03-15T07:32:53.373Z,1.58
2023-03-15T07:35:20.040Z,1.55
2023-03-15T07:37:46.696Z,1.13
2023-03-15T07:40:14.043Z,2.05
2023-03-15T07:42:40.810Z,1.58
2023-03-15T07:47:49.604Z,1.83
2023-03-15T07:50:17.576Z,1.67
2023-03-15T07:52:44.096Z,1.80
2023-03-15T07:55:10.936Z,1.75
2023-03-15T07:57:37.618Z,1.52
2023-03-15T08:00:05.604Z,1.30
2023-03-15T08:02:32.216Z,1.33
2023-03-15T08:04:58.797Z,1.00
2023-03-15T08:07:25.313Z,1.10
2023-03-15T08:09:52.114Z,0.98
2023-03-15T08:12:18.549Z,1.52
2023-03-15T08:14:44.997Z,0.98
2023-03-15T08:17:13.297Z,1.33
2023-03-15T08:19:39.881Z,1.33
2023-03-15T08:22:06.660Z,1.33
2023-03-15T08:24:33.568Z,1.60
2023-03-15T08:26:59.958Z,1.30
2023-03-15T08:29:26.550Z,2.83
2023-03-15T08:31:53.014Z,1.20
2023-03-15T08:34:19.590Z,1.90
2023-03-15T08:36:49.692Z,2.30
2023-03-15T08:39:19.566Z,0.90
2023-03-15T08:41:47.444Z,1.05
2023-03-15T08:44:15.257Z,1.40
2023-03-15T08:46:41.754Z,1.23
2023-03-15T08:49:08.295Z,1.10
2023-03-15T08:51:34.993Z,1.25
2023-03-15T08:54:04.247Z,1.20
2023-03-15T08:56:32.369Z,1.58
2023-03-15T08:58:58.908Z,1.35
2023-03-15T09:01:25.328Z,0.82
2023-03-15T09:03:52.035Z,1.50
2023-03-15T09:06:18.589Z,1.98
2023-03-15T09:08:45.045Z,1.30
2023-03-15T09:11:11.491Z,1.08
2023-03-15T09:13:37.962Z,1.50
2023-03-15T09:16:04.619Z,1.20
2023-03-15T09:18:34.108Z,1.52
2023-03-15T09:21:01.963Z,1.73
2023-03-15T09:23:28.468Z,1.17
2023-03-15T09:25:54.929Z,1.73
2023-03-15T09:28:21.397Z,1.52
2023-03-15T09:30:47.904Z,1.45
2023-03-15T09:33:14.819Z,1.23
2023-03-15T09:35:42.256Z,1.10
2023-03-15T09:38:08.984Z,1.02
2023-03-15T09:40:40.724Z,1.25
2023-03-15T09:43:07.131Z,1.05
2023-03-15T09:46:04.534Z,1.40
2023-03-15T09:48:52.764Z,1.50
2023-03-15T09:51:35.792Z,1.20
2023-03-15T09:54:08.972Z,1.60
2023-03-15T09:59:26.919Z,2.05
2023-03-15T10:01:56.381Z,1.70
2023-03-15T10:04:30.527Z,2.58
2023-03-15T10:07:01.041Z,3.08
2023-03-15T10:09:35.500Z,2.20
2023-03-15T10:12:44.428Z,2.00
2023-03-15T10:15:16.874Z,2.28
2023-03-15T10:17:52.469Z,2.20
2023-03-15T10:20:26.580Z,1.48
2023-03-15T10:23:03.213Z,2.00
2023-03-15T10:25:31.534Z,2.20
2023-03-15T10:28:19.629Z,1.40
2023-03-15T10:30:51.536Z,1.60
2023-03-15T10:33:29.746Z,1.60
2023-03-15T10:36:07.830Z,1.60
2023-03-15T10:38:38.702Z,1.70
2023-03-15T10:41:06.560Z,1.67
2023-03-15T10:43:40.434Z,1.70
2023-03-15T10:46:22.073Z,1.38
2023-03-15T10:49:08.925Z,1.55
2023-03-15T10:51:43.581Z,1.73
2023-03-15T10:54:23.066Z,1.35
2023-03-15T10:57:16.681Z,1.80
2023-03-15T10:59:57.710Z,1.52
2023-03-15T11:02:26.225Z,1.20
2023-03-15T11:05:17.247Z,2.20
2023-03-15T11:07:55.849Z,3.47
2023-03-15T11:10:28.362Z,1.92
2023-03-15T11:13:13.293Z,1.70
2023-03-15T11:15:47.364Z,1.75
2023-03-15T11:18:20.546Z,1.90
2023-03-15T11:20:47.200Z,1.88
2023-03-15T11:23:29.530Z,2.22
2023-03-15T11:25:56.670Z,2.67
2023-03-15T11:28:28.385Z,2.10
2023-03-15T11:30:57.747Z,2.25
2023-03-15T11:33:45.814Z,1.70
2023-03-15T11:36:17.468Z,2.58
2023-03-15T11:38:45.852Z,1.83
2023-03-15T11:41:35.430Z,2.67
2023-03-15T11:44:20.811Z,2.10
2023-03-15T11:46:57.795Z,2.00
2023-03-15T11:49:35.409Z,1.65
2023-03-15T11:52:02.316Z,1.30
2023-03-15T11:54:30.862Z,1.55
2023-03-15T11:57:03.569Z,2.10
2023-03-15T11:59:32.778Z,1.07
2023-03-15T12:02:21.398Z,1.08
2023-03-15T12:04:49.852Z,1.25
2023-03-15T12:07:19.761Z,1.15
2023-03-15T12:09:52.639Z,2.50
2023-03-15T12:12:25.432Z,0.93
2023-03-15T12:15:15.106Z,1.53
2023-03-15T12:17:52.168Z,1.20
2023-03-15T12:36:08.969Z,1.05
2023-03-15T12:38:38.370Z,1.38
2023-03-15T12:41:29.689Z,2.33
2023-03-15T12:44:23.941Z,1.38
2023-03-15T12:46:50.288Z,1.20
2023-03-15T12:49:16.688Z,1.08
2023-03-15T12:51:59.322Z,2.00
2023-03-15T12:54:32.791Z,1.20
2023-03-15T12:57:03.041Z,1.10
2023-03-15T12:59:29.429Z,1.10
2023-03-15T13:01:58.194Z,1.42
2023-03-15T13:04:27.175Z,1.45
2023-03-15T13:07:50.260Z,1.20
2023-03-15T13:10:31.316Z,1.15
2023-03-15T13:13:04.324Z,1.13
2023-03-15T13:15:53.477Z,1.10
2023-03-15T13:18:23.843Z,1.10
2023-03-15T13:21:10.071Z,2.22
2023-03-15T13:23:37.560Z,1.00
2023-03-15T13:26:41.194Z,1.10
2023-03-15T13:29:17.724Z,1.40
2023-03-15T13:31:46.545Z,1.30
2023-03-15T13:34:19.299Z,0.93
2023-03-15T13:37:02.309Z,1.13
2023-03-15T13:39:32.124Z,0.80
2023-03-15T13:41:59.659Z,1.48
2023-03-15T13:44:28.131Z,1.10
2023-03-15T13:46:55.557Z,1.35
2023-03-15T13:49:22.477Z,1.00
2023-03-15T13:51:51.941Z,1.40
2023-03-15T13:54:24.322Z,1.48
2023-03-15T13:57:18.368Z,1.40
2023-03-15T13:59:53.380Z,1.50
2023-03-15T14:02:28.923Z,1.20
2023-03-15T14:05:06.469Z,1.15
2023-03-15T14:07:45.510Z,1.23
2023-03-15T14:10:31.821Z,1.10
2023-03-15T14:13:17.548Z,1.27
2023-03-15T14:15:44.854Z,1.50
2023-03-15T14:18:11.611Z,1.05
2023-03-15T14:20:45.027Z,1.02
2023-03-15T14:23:17.853Z,0.90
2023-03-15T14:25:52.324Z,1.40
2023-03-15T14:28:20.271Z,4.38
2023-03-15T14:30:58.385Z,1.40
2023-03-15T14:33:30.942Z,1.65
2023-03-15T14:36:03.726Z,2.00
2023-03-15T14:38:36.681Z,0.95
2023-03-15T14:41:33.299Z,0.95
2023-03-15T14:44:02.956Z,1.30
2023-03-15T14:46:32.202Z,1.50
2023-03-15T14:48:58.821Z,1.25
2023-03-15T14:51:28.401Z,1.75
2023-03-15T14:53:57.405Z,1.05
2023-03-15T14:56:25.072Z,1.17
2023-03-15T14:58:54.180Z,1.05
2023-03-15T15:01:27.175Z,0.93
2023-03-15T15:03:58.949Z,1.10
2023-03-15T15:06:29.030Z,1.05
2023-03-15T15:08:58.738Z,1.25
2023-03-15T15:11:26.443Z,1.10
2023-03-15T15:13:53.422Z,1.35
2023-03-15T15:16:19.851Z,0.90
2023-03-15T15:18:46.412Z,1.48
2023-03-15T15:21:27.143Z,1.00
2023-03-15T15:23:58.991Z,1.23
2023-03-15T15:26:29.078Z,1.17
2023-03-15T15:28:56.516Z,2.10
2023-03-15T15:31:25.965Z,1.05
2023-03-15T15:33:53.945Z,1.05
2023-03-15T15:36:31.931Z,1.10
2023-03-15T15:39:04.996Z,2.58
2023-03-15T15:43:59.937Z,0.82
2023-03-15T15:46:26.682Z,1.23
2023-03-15T15:48:53.334Z,1.17
2023-03-15T15:51:45.878Z,0.95
2023-03-15T15:54:25.858Z,1.20
2023-03-15T15:56:55.638Z,0.95
2023-03-15T15:59:22.592Z,1.30
2023-03-15T16:02:00.148Z,1.95
2023-03-15T16:04:27.731Z,1.23
2023-03-15T16:06:56.790Z,1.50
2023-03-15T16:09:25.574Z,1.48
2023-03-15T16:11:52.086Z,1.42
2023-03-15T16:14:18.535Z,1.80
2023-03-15T16:16:46.936Z,1.90
2023-03-15T16:19:13.426Z,1.73
2023-03-15T16:21:44.085Z,2.00
2023-03-15T16:24:25.708Z,2.38
2023-03-15T16:26:58.202Z,1.60
2023-03-15T16:29:28.149Z,1.50
2023-03-15T16:31:57.471Z,1.25
2023-03-15T16:34:26.213Z,1.95
2023-03-15T16:36:55.880Z,2.03
2023-03-15T16:39:22.440Z,5.80
2023-03-15T16:41:49.085Z,1.80
2023-03-15T16:44:18.520Z,2.10
2023-03-15T16:46:45.351Z,1.92
2023-03-15T16:49:15.274Z,1.58
2023-03-15T16:51:45.703Z,1.23
2023-03-15T16:54:24.334Z,1.42
2023-03-15T16:56:57.480Z,1.52
2023-03-15T16:59:23.939Z,1.67
2023-03-15T17:01:50.791Z,1.50
2023-03-15T17:04:17.492Z,2.03
2023-03-15T17:06:45.771Z,1.75
2023-03-15T17:09:15.631Z,2.03
2023-03-15T17:11:44.389Z,1.90
2023-03-15T17:14:18.553Z,2.50
2023-03-15T17:16:45.713Z,2.25
2023-03-15T17:19:14.160Z,2.20
2023-03-15T17:21:41.978Z,6.53
2023-03-15T17:24:10.122Z,6.30
2023-03-15T17:26:37.652Z,2.40
2023-03-15T17:29:04.843Z,2.67
2023-03-15T17:31:37.963Z,3.38
2023-03-15T17:34:04.624Z,2.50
2023-03-15T17:36:37.402Z,2.90
2023-03-15T17:39:05.808Z,2.13
2023-03-15T17:41:36.157Z,1.80
2023-03-15T17:44:03.945Z,1.67
2023-03-15T17:46:33.016Z,1.88
2023-03-15T17:49:01.165Z,2.33
2023-03-15T17:51:30.985Z,2.60
2023-03-15T17:53:59.376Z,1.98
2023-03-15T17:56:27.762Z,2.55
2023-03-15T17:59:01.808Z,2.35
2023-03-15T18:01:29.109Z,1.80
2023-03-15T18:03:56.319Z,2.70
2023-03-15T18:06:23.314Z,2.28
2023-03-15T18:08:50.402Z,2.40
2023-03-15T18:11:29.823Z,2.85
2023-03-15T18:14:06.606Z,3.58
2023-03-15T18:16:33.205Z,2.17
2023-03-15T18:19:07.655Z,2.97
2023-03-15T18:21:35.428Z,2.95
2023-03-15T18:24:02.071Z,4.13
2023-03-15T18:26:28.569Z,3.90
2023-03-15T18:28:55.311Z,3.53
2023-03-15T18:31:23.957Z,3.80
2023-03-15T18:33:51.825Z,3.30
2023-03-15T18:36:21.926Z,3.25
2023-03-15T18:38:49.187Z,3.65
2023-03-15T18:41:22.786Z,3.75
2023-03-15T18:43:50.269Z,3.50
2023-03-15T18:46:18.639Z,3.75
2023-03-15T18:48:47.110Z,3.45
2023-03-15T18:51:15.542Z,3.55
2023-03-15T18:53:43.412Z,4.43
2023-03-15T18:56:19.478Z,4.97
2023-03-15T18:58:47.663Z,4.90
2023-03-15T19:01:16.712Z,4.78
2023-03-15T19:03:43.560Z,4.57
2023-03-15T19:06:12.128Z,2.97
2023-03-15T19:08:39.400Z,2.92
2023-03-15T19:11:17.005Z,2.80
2023-03-15T19:13:43.501Z,2.40
2023-03-15T19:16:10.141Z,2.22
2023-03-15T19:18:36.646Z,2.00
2023-03-15T19:21:03.174Z,2.53
2023-03-15T19:23:29.769Z,3.40
2023-03-15T19:25:56.275Z,3.05
2023-03-15T19:28:22.791Z,3.22
2023-03-15T19:30:49.450Z,3.17
2023-03-15T19:33:16.138Z,3.65
2023-03-15T19:35:42.748Z,2.80
2023-03-15T19:38:09.269Z,3.03
2023-03-15T19:40:36.627Z,3.85
2023-03-15T19:43:03.265Z,2.63
2023-03-15T19:45:33.247Z,2.03
2023-03-15T19:47:59.758Z,2.45
2023-03-15T19:50:30.947Z,2.00
2023-03-15T19:52:58.372Z,2.45
2023-03-15T19:55:27.979Z,2.05
2023-03-15T19:57:56.228Z,2.58
2023-03-15T20:00:23.644Z,3.00
2023-03-15T20:02:50.567Z,2.45
2023-03-15T20:05:22.435Z,2.42
2023-03-15T20:07:51.731Z,2.95
2023-03-15T20:10:19.678Z,3.60
2023-03-15T20:12:47.322Z,3.15
2023-03-15T20:15:17.461Z,3.40
2023-03-15T20:17:44.695Z,4.15
2023-03-15T20:20:13.730Z,2.55
2023-03-15T20:22:44.013Z,2.72
2023-03-15T20:25:12.812Z,2.92
2023-03-15T20:27:39.414Z,2.60
2023-03-15T20:30:07.287Z,3.05
2023-03-15T20:32:36.166Z,2.72
2023-03-15T20:35:07.275Z,2.40
2023-03-15T20:37:34.968Z,2.30
2023-03-15T20:40:01.582Z,2.60
2023-03-15T20:42:28.040Z,2.03
2023-03-15T20:44:55.551Z,2.30
2023-03-15T20:47:22.053Z,4.70
2023-03-15T20:49:48.595Z,3.00
2023-03-15T20:52:15.293Z,3.45
2023-03-15T20:54:41.831Z,2.78
2023-03-15T20:57:08.386Z,3.65
2023-03-15T20:59:38.811Z,2.83
2023-03-15T21:02:05.373Z,3.35
2023-03-15T21:04:32.092Z,3.20
2023-03-15T21:07:04.181Z,3.50
2023-03-15T21:09:32.100Z,2.90
2023-03-15T21:12:01.504Z,2.75
2023-03-15T21:14:28.204Z,3.38
2023-03-15T21:16:55.274Z,3.22
2023-03-15T21:19:22.901Z,4.28
2023-03-15T21:21:49.395Z,3.85
2023-03-15T21:24:15.858Z,3.67
2023-03-15T21:26:44.162Z,3.63
2023-03-15T21:29:13.359Z,4.47
2023-03-15T21:31:39.939Z,4.45
2023-03-15T21:34:06.489Z,6.55
2023-03-15T21:36:32.997Z,5.85
2023-03-15T21:38:59.929Z,6.57
2023-03-15T21:41:26.426Z,5.00
2023-03-15T21:43:52.886Z,5.68
2023-03-15T21:46:19.409Z,6.53
2023-03-15T21:48:45.985Z,6.35
2023-03-15T21:51:14.693Z,4.75
2023-03-15T21:53:43.489Z,3.60
2023-03-15T21:56:10.033Z,4.43
2023-03-15T21:58:36.783Z,3.05
2023-03-15T22:01:06.422Z,4.10
2023-03-15T22:03:34.822Z,3.40
2023-03-15T22:06:02.031Z,3.42
2023-03-15T22:08:28.921Z,3.17
2023-03-15T22:10:58.125Z,2.92
2023-03-15T22:13:25.375Z,2.35
2023-03-15T22:15:55.125Z,3.17
2023-03-15T22:18:28.606Z,2.42
2023-03-15T22:20:56.388Z,2.75
2023-03-15T22:23:23.389Z,2.47
2023-03-15T22:25:51.277Z,2.33
2023-03-15T22:28:18.010Z,2.42
2023-03-15T22:30:48.287Z,2.60
2023-03-15T22:33:16.031Z,3.53
2023-03-15T22:35:42.849Z,4.70
2023-03-15T22:38:12.622Z,6.22
2023-03-15T22:40:40.708Z,5.90
2023-03-15T22:43:09.166Z,5.32
2023-03-15T22:45:35.877Z,5.53
2023-03-15T22:48:02.812Z,5.68
2023-03-15T22:50:29.441Z,5.72
2023-03-15T22:52:56.293Z,5.80
2023-03-15T22:55:22.983Z,5.25
2023-03-15T22:57:49.624Z,4.93
2023-03-15T23:00:21.971Z,6.03
2023-03-15T23:02:52.639Z,7.03
2023-03-15T23:05:19.706Z,7.55
2023-03-15T23:07:46.605Z,6.57
2023-03-15T23:10:13.408Z,5.97
2023-03-15T23:12:40.074Z,6.35
2023-03-15T23:15:07.777Z,7.00
2023-03-15T23:17:34.514Z,6.45
2023-03-15T23:20:01.251Z,4.85
2023-03-15T23:22:27.871Z,4.43
2023-03-15T23:24:58.268Z,3.67
2023-03-15T23:27:26.188Z,4.32
2023-03-15T23:30:06.250Z,4.18
2023-03-15T23:32:36.811Z,4.70
2023-03-15T23:35:08.922Z,4.07
2023-03-15T23:37:35.990Z,3.47
2023-03-15T23:40:11.589Z,3.45
2023-03-15T23:42:38.418Z,3.60
2023-03-15T23:45:08.163Z,3.65
2023-03-15T23:47:37.156Z,3.47
2023-03-15T23:50:04.104Z,4.57
2023-03-15T23:52:31.073Z,4.80
2023-03-15T23:54:58.188Z,5.18
2023-03-15T23:57:25.129Z,4.60
2023-03-15T23:59:52.371Z,5.13
